Time;durP1;ratioP1;P1;durP2;ratioP2;P2;SDS_P1;SDS_P2;PMS_P1;PMS_P2;Temp;Humidity;BMP_temperature;BMP_pressure;BME280_temperature;BME280_humidity;BME280_pressure;Samples;Min_cycle;Max_cycle;Signal;HPM_P1;HPM_P2
2022/08/05 00:00:18;;;;;;;19.63;8.57;;;;;;;;;;5008220;28;20527;-72
2022/08/05 00:02:45;;;;;;;19.93;8.60;;;;;;;;;;5023857;28;21269;-73
2022/08/05 00:05:13;;;;;;;22.27;8.20;;;;;;;;;;5011418;28;21034;-73
2022/08/05 00:07:43;;;;;;;24.77;9.63;;;;;;;;;;5010055;28;20485;-73
2022/08/05 00:10:10;;;;;;;15.77;6.97;;;;;;;;;;5011764;28;20485;-72
2022/08/05 00:12:37;;;;;;;32.07;11.47;;;;;;;;;;5007458;28;20936;-72
2022/08/05 00:15:04;;;;;;;21.33;8.47;;;;;;;;;;5015228;28;20484;-72
2022/08/05 00:17:31;;;;;;;29.87;10.67;;;;;;;;;;5010668;28;20825;-71
2022/08/05 00:19:59;;;;;;;26.43;9.93;;;;;;;;;;5011126;28;20545;-72
2022/08/05 00:22:26;;;;;;;24.60;9.43;;;;;;;;;;5019253;28;20480;-72
2022/08/05 00:24:55;;;;;;;64.10;10.13;;;;;;;;;;5010390;28;20497;-73
2022/08/05 00:27:22;;;;;;;22.50;8.13;;;;;;;;;;5007632;28;20570;-73
2022/08/05 00:29:49;;;;;;;16.00;6.40;;;;;;;;;;5019730;28;20493;-72
2022/08/05 00:32:16;;;;;;;28.13;7.93;;;;;;;;;;5025172;28;20537;-73
2022/08/05 00:34:45;;;;;;;26.87;8.03;;;;;;;;;;5022070;28;20521;-73
2022/08/05 00:37:14;;;;;;;14.30;5.70;;;;;;;;;;5025838;28;20535;-72
2022/08/05 00:39:42;;;;;;;46.07;10.30;;;;;;;;;;5025048;28;21027;-72
2022/08/05 00:42:11;;;;;;;26.80;6.73;;;;;;;;;;5014048;28;20477;-73
2022/08/05 00:44:38;;;;;;;33.43;9.20;;;;;;;;;;5021837;28;20479;-72
2022/08/05 00:47:05;;;;;;;20.00;5.70;;;;;;;;;;5024610;28;20472;-72
2022/08/05 00:49:33;;;;;;;32.27;10.50;;;;;;;;;;5022997;28;20538;-74
2022/08/05 00:52:01;;;;;;;13.70;6.77;;;;;;;;;;5025799;28;20485;-72
2022/08/05 00:54:28;;;;;;;9.63;5.27;;;;;;;;;;5022193;28;20484;-72
2022/08/05 00:56:55;;;;;;;19.17;7.10;;;;;;;;;;5023280;28;21220;-72
2022/08/05 00:59:23;;;;;;;20.77;6.63;;;;;;;;;;5023044;28;20878;-73
2022/08/05 01:01:52;;;;;;;12.17;5.90;;;;;;;;;;5019626;28;20579;-73
2022/08/05 01:04:19;;;;;;;10.77;4.97;;;;;;;;;;5011862;28;20485;-72
2022/08/05 01:06:47;;;;;;;17.07;6.83;;;;;;;;;;5020607;28;20487;-71
2022/08/05 01:09:14;;;;;;;13.30;5.97;;;;;;;;;;5020464;28;20542;-72
2022/08/05 01:11:42;;;;;;;30.73;10.13;;;;;;;;;;5024955;28;20472;-72
2022/08/05 01:14:12;;;;;;;17.27;6.87;;;;;;;;;;5018808;28;20824;-72
2022/08/05 01:16:48;;;;;;;35.50;12.27;;;28.00;70.50;;;;;;5018989;28;20499;-72
2022/08/05 01:19:24;;;;;;;23.37;8.30;;;;;;;;;;5021392;28;20563;-72
2022/08/05 01:21:58;;;;;;;16.90;6.67;;;;;;;;;;5007072;28;20480;-74
2022/08/05 01:24:46;;;;;;;17.63;6.60;;;;;;;;;;5009799;28;21318;-74
2022/08/05 01:27:20;;;;;;;24.57;6.27;;;;;;;;;;5021985;28;20487;-73
2022/08/05 01:29:50;;;;;;;20.10;7.40;;;;;;;;;;5011153;28;20506;-74
2022/08/05 01:32:21;;;;;;;12.93;5.83;;;;;;;;;;5018863;28;20985;-74
2022/08/05 01:34:49;;;;;;;18.50;6.20;;;;;;;;;;5010011;28;20527;-74
2022/08/05 01:37:18;;;;;;;24.53;8.43;;;;;;;;;;5012545;28;20481;-73
2022/08/05 01:39:47;;;;;;;25.77;8.03;;;;;;;;;;5023035;28;20480;-72
2022/08/05 01:42:15;;;;;;;13.53;6.17;;;;;;;;;;5020468;28;20538;-75
2022/08/05 01:44:43;;;;;;;36.10;11.37;;;25.80;81.80;;;;;;5019874;28;20551;-72
2022/08/05 01:47:13;;;;;;;17.83;8.50;;;;;;;;;;5021190;28;20484;-74
2022/08/05 01:49:42;;;;;;;28.40;11.50;;;;;;;;;;5019871;28;20485;-74
2022/08/05 01:52:11;;;;;;;26.53;7.97;;;;;;;;;;5021229;28;20473;-73
2022/08/05 01:54:42;;;;;;;34.37;12.80;;;;;;;;;;5019624;28;20485;-72
2022/08/05 01:57:10;;;;;;;12.70;6.17;;;;;;;;;;5022270;28;20905;-73
2022/08/05 01:59:39;;;;;;;35.13;13.30;;;;;;;;;;5016890;28;20535;-72
2022/08/05 02:02:08;;;;;;;19.43;8.67;;;;;;;;;;5020439;28;20489;-72
2022/08/05 02:04:38;;;;;;;31.93;8.47;;;;;;;;;;5019436;28;20485;-72
2022/08/05 02:07:05;;;;;;;14.90;6.70;;;;;;;;;;5020090;28;21003;-73
2022/08/05 02:09:32;;;;;;;31.90;12.13;;;;;;;;;;5020632;28;20480;-73
2022/08/05 02:12:02;;;;;;;45.00;8.50;;;;;;;;;;5017863;28;20543;-72
2022/08/05 02:14:31;;;;;;;29.50;10.57;;;;;;;;;;5013403;28;20550;-71
2022/08/05 02:17:03;;;;;;;26.43;8.87;;;;;;;;;;5010425;28;20562;-73
2022/08/05 02:19:34;;;;;;;24.43;9.70;;;24.30;91.10;;;;;;5008043;28;20558;-73
2022/08/05 02:22:06;;;;;;;12.57;6.40;;;;;;;;;;5011246;28;20488;-73
2022/08/05 02:24:36;;;;;;;27.07;9.43;;;;;;;;;;5004970;28;21004;-73
2022/08/05 02:27:05;;;;;;;18.57;7.50;;;;;;;;;;5021406;28;20492;-73
2022/08/05 02:29:34;;;;;;;34.60;13.07;;;;;;;;;;5014223;28;20481;-70
2022/08/05 02:32:01;;;;;;;36.93;10.60;;;;;;;;;;5018607;28;20480;-72
2022/08/05 02:34:30;;;;;;;24.83;8.20;;;;;;;;;;5014910;28;20492;-72
2022/08/05 02:36:59;;;;;;;17.63;7.10;;;;;;;;;;5020231;28;20480;-73
2022/08/05 02:39:33;;;;;;;29.40;9.30;;;;;;;;;;5020636;28;20485;-72
2022/08/05 02:42:01;;;;;;;12.00;6.37;;;;;;;;;;5011822;28;20488;-72
2022/08/05 02:44:29;;;;;;;18.47;8.77;;;;;;;;;;5018739;28;20469;-72
2022/08/05 02:46:56;;;;;;;18.90;8.87;;;;;;;;;;5020351;28;20473;-73
2022/08/05 02:49:24;;;;;;;21.20;8.27;;;;;;;;;;5016279;28;20591;-73
2022/08/05 02:51:51;;;;;;;8.30;5.10;;;;;;;;;;5022643;28;20497;-72
2022/08/05 02:54:19;;;;;;;12.33;5.87;;;;;;;;;;5016324;28;20481;-72
2022/08/05 02:56:47;;;;;;;21.43;9.30;;;;;;;;;;5018015;28;21389;-72
2022/08/05 02:59:16;;;;;;;53.50;9.63;;;;;;;;;;5006531;28;20943;-71
2022/08/05 03:01:43;;;;;;;25.37;9.83;;;;;;;;;;5014123;28;21033;-72
2022/08/05 03:04:13;;;;;;;29.30;8.80;;;24.60;86.50;;;;;;5015867;28;20520;-71
2022/08/05 03:06:42;;;;;;;37.57;10.67;;;;;;;;;;5018444;28;20886;-72
2022/08/05 03:09:12;;;;;;;17.03;7.20;;;;;;;;;;5018132;28;20568;-72
2022/08/05 03:11:41;;;;;;;34.10;11.80;;;;;;;;;;5013133;28;20910;-71
2022/08/05 03:14:10;;;;;;;15.93;7.17;;;;;;;;;;5015903;28;20586;-70
2022/08/05 03:16:37;;;;;;;33.67;12.47;;;;;;;;;;5019562;28;20492;-71
2022/08/05 03:19:04;;;;;;;18.93;7.43;;;;;;;;;;5020546;28;20480;-71
2022/08/05 03:21:31;;;;;;;28.27;11.10;;;;;;;;;;5016153;28;20485;-70
2022/08/05 03:23:59;;;;;;;26.33;11.00;;;;;;;;;;5004004;28;20840;-71
2022/08/05 03:26:26;;;;;;;26.90;8.30;;;;;;;;;;5020880;28;20844;-71
2022/08/05 03:28:53;;;;;;;16.10;6.40;;;;;;;;;;5018939;28;20484;-71
2022/08/05 03:31:22;;;;;;;18.53;8.63;;;;;;;;;;5021219;28;20480;-72
2022/08/05 03:33:49;;;;;;;21.70;8.93;;;;;;;;;;5018879;28;21233;-72
2022/08/05 03:36:16;;;;;;;18.60;8.57;;;;;;;;;;5001850;28;20574;-71
2022/08/05 03:38:43;;;;;;;20.80;9.20;;;;;;;;;;5024899;28;20485;-72
2022/08/05 03:41:10;;;;;;;14.20;6.97;;;;;;;;;;5018048;28;20480;-71
2022/08/05 03:43:38;;;;;;;32.07;12.00;;;;;;;;;;5017021;28;20523;-71
2022/08/05 03:46:05;;;;;;;16.63;7.50;;;;;;;;;;5016630;28;20472;-71
2022/08/05 03:48:34;;;;;;;47.63;12.70;;;;;;;;;;5015883;28;20477;-71
2022/08/05 03:51:04;;;;;;;16.97;7.77;;;;;;;;;;5018304;28;20481;-71
2022/08/05 03:53:33;;;;;;;19.03;8.13;;;;;;;;;;5015442;28;20481;-71
2022/08/05 03:56:05;;;;;;;30.00;9.00;;;;;;;;;;5009908;28;20477;-71
2022/08/05 03:58:33;;;;;;;19.73;8.30;;;;;;;;;;5014643;28;20488;-71
2022/08/05 04:01:01;;;;;;;16.57;7.30;;;;;;;;;;5011900;28;20539;-71
2022/08/05 04:03:30;;;;;;;15.97;7.10;;;;;;;;;;5003477;28;20485;-71
2022/08/05 04:05:59;;;;;;;24.93;9.53;;;;;;;;;;5005021;28;20480;-71
2022/08/05 04:08:29;;;;;;;32.50;8.53;;;;;;;;;;5005276;28;21161;-72
2022/08/05 04:10:56;;;;;;;14.40;7.90;;;;;;;;;;5013915;28;20516;-71
2022/08/05 04:13:24;;;;;;;22.97;9.60;;;;;;;;;;5015806;28;20472;-71
2022/08/05 04:15:52;;;;;;;45.67;9.03;;;;;;;;;;5008306;28;20485;-71
2022/08/05 04:18:19;;;;;;;19.20;8.43;;;;;;;;;;4985927;28;20481;-71
2022/08/05 04:20:53;;;;;;;27.67;10.83;;;;;;;;;;5011646;28;20484;-71
2022/08/05 04:23:22;;;;;;;33.97;9.13;;;;;;;;;;5005554;28;20953;-72
2022/08/05 04:25:49;;;;;;;13.33;6.80;;;;;;;;;;5017333;28;20473;-72
2022/08/05 04:28:16;;;;;;;18.07;8.43;;;;;;;;;;5019383;28;20538;-71
2022/08/05 04:30:43;;;;;;;40.67;11.37;;;;;;;;;;5018481;28;20484;-72
2022/08/05 04:33:10;;;;;;;14.03;7.60;;;;;;;;;;5019579;28;20508;-71
2022/08/05 04:35:37;;;;;;;32.03;12.20;;;;;;;;;;5010018;28;20484;-72
2022/08/05 04:38:04;;;;;;;23.93;6.60;;;;;;;;;;5007863;28;20989;-71
2022/08/05 04:40:35;;;;;;;34.33;10.40;;;;;;;;;;5015042;28;20484;-72
2022/08/05 04:43:02;;;;;;;14.63;7.03;;;;;;;;;;5016663;28;21004;-71
2022/08/05 04:45:29;;;;;;;26.73;10.53;;;;;;;;;;5014130;28;20488;-71
2022/08/05 04:48:03;;;;;;;20.80;9.10;;;;;;;;;;5020031;28;20481;-72
2022/08/05 04:50:30;;;;;;;25.13;10.93;;;;;;;;;;5005816;28;20473;-71
2022/08/05 04:52:57;;;;;;;16.80;8.07;;;;;;;;;;5014702;28;20501;-72
2022/08/05 04:55:25;;;;;;;21.43;9.10;;;;;;;;;;5011473;28;20485;-71
2022/08/05 04:57:53;;;;;;;14.77;7.53;;;;;;;;;;5013893;28;20564;-71
2022/08/05 05:00:20;;;;;;;21.70;9.90;;;;;;;;;;5017712;28;20970;-71
2022/08/05 05:02:47;;;;;;;21.00;9.30;;;;;;;;;;5007097;28;20519;-72
2022/08/05 05:05:14;;;;;;;56.87;10.43;;;;;;;;;;5018259;28;21021;-71
2022/08/05 05:07:41;;;;;;;29.03;12.50;;;;;;;;;;5011347;28;20531;-71
2022/08/05 05:10:08;;;;;;;14.90;8.33;;;;;;;;;;5021103;28;20476;-72
2022/08/05 05:12:36;;;;;;;64.30;14.40;;;;;;;;;;5019797;28;20480;-72
2022/08/05 05:15:05;;;;;;;15.10;8.37;;;;;;;;;;5020190;28;20488;-71
2022/08/05 05:17:37;;;;;;;25.97;12.07;;;;;;;;;;5020813;28;20492;-71
2022/08/05 05:20:05;;;;;;;26.60;9.60;;;;;;;;;;5021828;28;20559;-70
2022/08/05 05:22:32;;;;;;;21.33;10.10;;;;;;;;;;5021894;28;20481;-71
2022/08/05 05:24:59;;;;;;;14.53;7.13;;;;;;;;;;5019174;28;20577;-71
2022/08/05 05:27:26;;;;;;;28.77;9.27;;;;;;;;;;5022661;28;20485;-70
2022/08/05 05:29:53;;;;;;;26.70;9.03;;;;;;;;;;5021704;28;20476;-71
2022/08/05 05:32:22;;;;;;;25.23;10.03;;;;;;;;;;5022149;28;21225;-69
2022/08/05 05:34:49;;;;;;;14.37;7.70;;;;;;;;;;5016165;28;20910;-71
2022/08/05 05:37:16;;;;;;;17.33;7.90;;;;;;;;;;5022688;28;20543;-72
2022/08/05 05:39:43;;;;;;;39.97;14.43;;;;;;;;;;5007673;28;20493;-70
2022/08/05 05:42:10;;;;;;;20.67;8.27;;;;;;;;;;5009521;28;21042;-72
2022/08/05 05:44:37;;;;;;;45.77;13.73;;;;;;;;;;5019201;28;20554;-70
2022/08/05 05:47:05;;;;;;;28.63;10.77;;;;;;;;;;5020458;28;20550;-69
2022/08/05 05:49:37;;;;;;;54.27;15.23;;;;;;;;;;5003563;28;20532;-69
2022/08/05 05:52:05;;;;;;;36.47;9.17;;;;;;;;;;5020780;28;20477;-70
2022/08/05 05:54:32;;;;;;;76.80;14.73;;;;;;;;;;5018197;28;20477;-69
2022/08/05 05:56:59;;;;;;;30.70;11.47;;;;;;;;;;5020168;28;21007;-69
2022/08/05 05:59:26;;;;;;;133.73;21.77;;;;;;;;;;5005115;28;20496;-69
2022/08/05 06:01:53;;;;;;;102.27;15.60;;;;;;;;;;4999080;28;20477;-68
2022/08/05 06:04:20;;;;;;;49.67;10.97;;;;;;;;;;5008586;28;21018;-69
2022/08/05 06:06:49;;;;;;;46.37;12.10;;;;;;;;;;5011383;28;20477;-68
2022/08/05 06:09:16;;;;;;;33.13;11.37;;;;;;;;;;5007300;28;20473;-68
2022/08/05 06:11:44;;;;;;;35.83;14.10;;;;;;;;;;5010115;28;21934;-68
2022/08/05 06:14:11;;;;;;;34.87;13.00;;;;;;;;;;5010086;28;20688;-68
2022/08/05 06:16:38;;;;;;;75.33;16.93;;;;;;;;;;5011438;28;21005;-68
2022/08/05 06:19:06;;;;;;;29.40;12.07;;;;;;;;;;5000857;28;20808;-68
2022/08/05 06:21:33;;;;;;;36.60;14.53;;;;;;;;;;5020968;28;21087;-69
2022/08/05 06:24:01;;;;;;;42.47;15.10;;;;;;;;;;5011793;28;20874;-68
2022/08/05 06:26:28;;;;;;;27.57;12.50;;;;;;;;;;5009858;28;20489;-69
2022/08/05 06:28:55;;;;;;;21.37;10.73;;;;;;;;;;5010562;28;20485;-68
2022/08/05 06:31:22;;;;;;;39.07;12.27;;;;;;;;;;5009420;28;20904;-68
2022/08/05 06:33:49;;;;;;;52.87;15.23;;;;;;;;;;4997624;28;20532;-67
2022/08/05 06:36:16;;;;;;;35.60;12.40;;;;;;;;;;5015302;28;20495;-67
2022/08/05 06:38:44;;;;;;;30.53;10.93;;;;;;;;;;5021191;28;20484;-68
2022/08/05 06:41:12;;;;;;;36.03;12.40;;;;;;;;;;5013423;28;20481;-69
2022/08/05 06:43:39;;;;;;;55.80;16.37;;;;;;;;;;5010644;28;20485;-69
2022/08/05 06:46:06;;;;;;;37.50;10.67;;;;;;;;;;5012295;28;20489;-68
2022/08/05 06:48:33;;;;;;;41.83;14.50;;;;;;;;;;5013327;28;20719;-68
2022/08/05 06:51:01;;;;;;;22.80;10.60;;;;;;;;;;5013291;28;20493;-69
2022/08/05 06:53:28;;;;;;;36.03;11.70;;;;;;;;;;5012324;28;20535;-68
2022/08/05 06:55:55;;;;;;;25.17;10.00;;;;;;;;;;5011869;28;20480;-68
2022/08/05 06:58:24;;;;;;;42.33;11.30;;;;;;;;;;5013071;28;20884;-70
2022/08/05 07:00:51;;;;;;;36.10;11.37;;;;;;;;;;5012762;28;21177;-69
2022/08/05 07:03:18;;;;;;;29.37;12.37;;;;;;;;;;5013493;28;20475;-69
2022/08/05 07:05:45;;;;;;;32.13;12.67;;;;;;;;;;5008739;28;20542;-68
2022/08/05 07:08:12;;;;;;;44.17;12.60;;;;;;;;;;5011677;28;21080;-70
2022/08/05 07:10:40;;;;;;;43.97;14.47;;;;;;;;;;5010770;28;20476;-68
2022/08/05 07:18:38;;;;;;;48.63;13.10;;;;;;;;;;5012639;28;20550;-70
2022/08/05 07:21:06;;;;;;;56.77;11.87;;;;;;;;;;5012138;28;20869;-70
2022/08/05 07:23:33;;;;;;;62.77;14.73;;;;;;;;;;5011553;28;20572;-70
2022/08/05 07:26:00;;;;;;;36.90;9.40;;;;;;;;;;5010324;28;20477;-69
2022/08/05 07:28:28;;;;;;;51.63;11.87;;;;;;;;;;5011230;28;20480;-68
2022/08/05 07:30:56;;;;;;;61.10;12.80;;;;;;;;;;5010222;28;20757;-70
2022/08/05 07:33:23;;;;;;;47.07;11.27;;;;;;;;;;5012922;28;20742;-71
2022/08/05 07:35:50;;;;;;;48.27;11.43;;;;;;;;;;5011516;28;20527;-71
2022/08/05 07:38:18;;;;;;;43.60;10.90;;;;;;;;;;5015295;28;20485;-71
2022/08/05 07:40:45;;;;;;;38.23;12.87;;;;;;;;;;5012927;28;20481;-70
2022/08/05 07:43:13;;;;;;;61.03;14.17;;;;;;;;;;5014640;28;20559;-71
2022/08/05 07:45:41;;;;;;;48.70;14.27;;;;;;;;;;5010874;28;20559;-72
2022/08/05 07:48:09;;;;;;;32.70;9.93;;;;;;;;;;5009104;28;20481;-71
2022/08/05 07:50:36;;;;;;;55.30;17.50;;;;;;;;;;5010964;28;20488;-71
2022/08/05 07:53:04;;;;;;;25.33;10.40;;;;;;;;;;5013263;28;20913;-71
2022/08/05 07:55:31;;;;;;;26.33;11.00;;;;;;;;;;5008948;28;20841;-73
2022/08/05 07:57:58;;;;;;;27.30;10.87;;;;;;;;;;5012101;28;21072;-70
2022/08/05 08:00:25;;;;;;;39.13;11.30;;;;;;;;;;5011540;28;20488;-69
2022/08/05 08:02:52;;;;;;;19.80;8.93;;;;;;;;;;5011639;28;20489;-70
2022/08/05 08:05:21;;;;;;;23.73;10.20;;;;;;;;;;5009792;28;20500;-71
2022/08/05 08:07:48;;;;;;;43.93;10.97;;;;;;;;;;5011413;28;20469;-70
2022/08/05 08:10:15;;;;;;;38.97;12.40;;;;;;;;;;5003170;28;20484;-70
2022/08/05 08:12:42;;;;;;;36.53;13.03;;;;;;;;;;5006190;28;20566;-72
2022/08/05 08:15:10;;;;;;;23.37;9.60;;;;;;;;;;4996008;28;20489;-71
2022/08/05 08:17:37;;;;;;;57.10;17.20;;;;;;;;;;5019063;28;20491;-70
2022/08/05 08:20:06;;;;;;;40.77;10.47;;;;;;;;;;5000855;28;20476;-71
2022/08/05 08:22:34;;;;;;;37.30;13.63;;;;;;;;;;5038377;28;20477;-71
2022/08/05 08:25:01;;;;;;;35.70;10.97;;;;;;;;;;5011066;28;21228;-71
2022/08/05 08:27:29;;;;;;;35.33;11.60;;;;;;;;;;5013607;28;20477;-71
2022/08/05 08:29:56;;;;;;;47.23;11.27;;;;;;;;;;5010551;28;20492;-70
2022/08/05 08:32:23;;;;;;;23.10;9.07;;;;;;;;;;5009972;28;20472;-69
2022/08/05 08:34:51;;;;;;;32.53;10.33;;;;;;;;;;5006401;28;21049;-70
2022/08/05 08:37:18;;;;;;;32.33;10.33;;;;;;;;;;5012611;28;21024;-70
2022/08/05 08:39:46;;;;;;;24.63;10.87;;;;;;;;;;5011502;28;20476;-70
2022/08/05 08:42:14;;;;;;;20.00;7.87;;;;;;;;;;5014464;28;20494;-70
2022/08/05 08:44:42;;;;;;;72.47;16.27;;;;;;;;;;5011095;28;20488;-71
2022/08/05 08:47:09;;;;;;;20.23;9.30;;;;;;;;;;5012786;28;20525;-71
2022/08/05 08:49:37;;;;;;;33.40;11.80;;;;;;;;;;5014690;28;20845;-70
2022/08/05 08:52:08;;;;;;;22.87;8.73;;;;;;;;;;5013273;28;20575;-71
2022/08/05 08:54:36;;;;;;;29.57;11.27;;;;;;;;;;5013524;28;21189;-69
2022/08/05 08:57:05;;;;;;;16.33;8.63;;;;;;;;;;5017748;28;20542;-70
2022/08/05 08:59:32;;;;;;;31.60;11.90;;;;;;;;;;5014700;28;20514;-70
2022/08/05 09:02:00;;;;;;;17.40;8.13;;;;;;;;;;5015327;28;20496;-70
2022/08/05 09:04:29;;;;;;;20.33;8.87;;;;;;;;;;5011976;28;21142;-70
2022/08/05 09:06:56;;;;;;;16.07;7.20;;;;;;;;;;5014843;28;20472;-70
2022/08/05 09:09:23;;;;;;;23.80;10.07;;;;;;;;;;5014913;28;20484;-70
2022/08/05 09:11:50;;;;;;;16.20;7.50;;;;;;;;;;5015335;28;20473;-70
2022/08/05 09:14:20;;;;;;;16.97;7.67;;;;;;;;;;5002539;28;20943;-70
2022/08/05 09:16:47;;;;;;;19.13;8.80;;;;;;;;;;5012120;28;20562;-70
2022/08/05 09:19:14;;;;;;;34.57;10.90;;;;;;;;;;5006642;28;20557;-70
2022/08/05 09:21:41;;;;;;;32.73;11.63;;;;;;;;;;5006186;28;20549;-70
2022/08/05 09:24:09;;;;;;;29.90;9.93;;;;;;;;;;5024613;28;21162;-70
2022/08/05 09:26:36;;;;;;;31.27;10.93;;;;;;;;;;5010497;28;20481;-71
2022/08/05 09:29:05;;;;;;;23.97;8.80;;;;;;;;;;5015040;28;20479;-70
2022/08/05 09:31:34;;;;;;;27.73;10.80;;;;;;;;;;5013639;28;21001;-70
2022/08/05 09:34:03;;;;;;;33.93;9.60;;;;;;;;;;5013354;28;21425;-70
2022/08/05 09:36:40;;;;;;;48.80;10.97;;;;;;;;;;5014120;28;20489;-70
2022/08/05 09:39:08;;;;;;;32.23;8.80;;;;;;;;;;5004406;28;20875;-70
2022/08/05 09:41:35;;;;;;;55.70;14.17;;;;;;;;;;5002461;28;20477;-70
2022/08/05 09:44:02;;;;;;;51.47;13.10;;;;;;;;;;5012678;28;20503;-70
2022/08/05 09:46:30;;;;;;;54.50;10.53;;;;;;;;;;5005322;28;20480;-70
2022/08/05 09:49:03;;;;;;;30.87;7.70;;;;;;;;;;5016060;28;20489;-70
2022/08/05 09:51:31;;;;;;;43.13;12.27;;;;;;;;;;5005609;28;20565;-69
2022/08/05 09:53:58;;;;;;;37.77;12.40;;;;;;;;;;5009005;28;20481;-69
2022/08/05 09:56:26;;;;;;;29.10;10.10;;;;;;;;;;5010806;28;20484;-69
2022/08/05 09:58:57;;;;;;;24.87;9.50;;;;;;;;;;5000438;28;20897;-70
2022/08/05 10:01:24;;;;;;;47.33;11.50;;;;;;;;;;4997808;28;20484;-70
2022/08/05 10:03:58;;;;;;;45.47;13.57;;;;;;;;;;5018258;28;20487;-70
2022/08/05 10:06:27;;;;;;;38.73;10.97;;;;;;;;;;5012069;28;20491;-71
2022/08/05 10:08:55;;;;;;;27.13;9.00;;;;;;;;;;5010131;28;20491;-70
2022/08/05 10:11:22;;;;;;;48.60;10.37;;;;;;;;;;5026525;28;21020;-69
2022/08/05 10:13:50;;;;;;;58.57;14.00;;;;;;;;;;5009216;28;20477;-71
2022/08/05 10:16:30;;;;;;;34.40;10.33;;;;;;;;;;5011191;28;20952;-69
2022/08/05 10:18:57;;;;;;;30.53;9.37;;;;;;;;;;5003233;28;20555;-70
2022/08/05 10:21:25;;;;;;;47.53;11.60;;;;;;;;;;5026109;28;20581;-71
2022/08/05 10:23:53;;;;;;;85.83;16.07;;;;;;;;;;5012262;28;20480;-71
2022/08/05 10:26:20;;;;;;;37.53;10.47;;;;;;;;;;5012915;28;21068;-70
2022/08/05 10:28:48;;;;;;;44.90;10.07;;;;;;;;;;5012425;28;20481;-69
2022/08/05 10:31:16;;;;;;;46.47;12.10;;;;;;;;;;5015037;28;20537;-70
2022/08/05 10:33:43;;;;;;;70.60;15.07;;;;;;;;;;5010929;28;20479;-70
2022/08/05 10:36:10;;;;;;;27.03;9.77;;;;;;;;;;5018551;28;20500;-69
2022/08/05 10:38:38;;;;;;;45.70;16.10;;;;;;;;;;5012044;28;20480;-70
2022/08/05 10:41:09;;;;;;;25.20;9.93;;;;;;;;;;5013745;28;20480;-69
2022/08/05 10:43:47;;;;;;;39.57;13.43;;;;;;;;;;5013714;28;20554;-69
2022/08/05 10:46:17;;;;;;;35.97;12.50;;;;;;;;;;5000359;28;20476;-69
2022/08/05 10:48:45;;;;;;;55.90;13.30;;;;;;;;;;5008671;28;21586;-69
2022/08/05 10:51:14;;;;;;;41.63;10.10;;;;;;;;;;5012694;28;20503;-69
2022/08/05 10:53:42;;;;;;;63.93;15.17;;;;;;;;;;5008253;28;20939;-70
2022/08/05 10:56:14;;;;;;;39.00;10.93;;;;;;;;;;5006686;28;20492;-70
2022/08/05 10:58:48;;;;;;;48.03;13.93;;;;;;;;;;5008151;28;20485;-70
2022/08/05 11:01:16;;;;;;;54.67;11.53;;;;;;;;;;5011220;28;21056;-71
2022/08/05 11:04:02;;;;;;;47.30;12.23;;;;;;;;;;5008036;28;20468;-69
2022/08/05 11:06:29;;;;;;;59.33;12.30;;;;;;;;;;5001439;28;21157;-70
2022/08/05 11:09:12;;;;;;;32.37;9.60;;;;;;;;;;5026816;28;21001;-70
2022/08/05 11:11:41;;;;;;;63.40;14.83;;;;;;;;;;5007896;28;20465;-71
2022/08/05 11:14:08;;;;;;;51.60;11.70;;;;;;;;;;5008019;28;20600;-70
2022/08/05 11:16:35;;;;;;;54.73;13.77;;;;;;;;;;5001311;28;20487;-70
2022/08/05 11:19:21;;;;;;;57.33;11.47;;;;;;;;;;5010022;28;20486;-70
2022/08/05 11:21:48;;;;;;;31.30;8.93;;;;;;;;;;5004448;28;20513;-71
2022/08/05 11:24:15;;;;;;;51.60;11.33;;;;;;;;;;5013564;28;20557;-70
2022/08/05 11:26:43;;;;;;;47.80;13.93;;;;;;;;;;5028892;28;20668;-71
2022/08/05 11:29:30;;;;;;;20.13;8.67;;;;;;;;;;5012322;28;20481;-71
2022/08/05 11:32:17;;;;;;;30.47;10.33;;;;;;;;;;5009660;28;20481;-70
2022/08/05 11:34:44;;;;;;;88.57;15.00;;;;;;;;;;5009220;28;20488;-71
2022/08/05 11:37:11;;;;;;;26.00;8.70;;;;;;;;;;5007600;28;20480;-71
2022/08/05 11:39:49;;;;;;;57.87;14.27;;;;;;;;;;5018485;28;20484;-71
2022/08/05 11:42:23;;;;;;;39.10;9.80;;;;;;;;;;5010358;28;20470;-71
2022/08/05 11:44:51;;;;;;;28.17;8.40;;;;;;;;;;5005633;28;20511;-71
2022/08/05 11:47:21;;;;;;;41.80;10.83;;;;;;;;;;5012293;28;21138;-70
2022/08/05 11:49:48;;;;;;;26.57;10.13;;;;;;;;;;5003125;28;20480;-71
2022/08/05 11:52:23;;;;;;;33.47;9.67;;;;;;;;;;5037853;28;20485;-70
2022/08/05 11:54:51;;;;;;;39.63;10.30;;;;;;;;;;5000968;28;20487;-70
2022/08/05 11:57:20;;;;;;;50.33;9.73;;;;;;;;;;5013835;28;20491;-70
2022/08/05 11:59:47;;;;;;;38.83;11.93;;;;;;;;;;5009657;28;20477;-70
2022/08/05 12:02:14;;;;;;;54.70;10.53;;;;;;;;;;5011487;28;20477;-71
2022/08/05 12:04:42;;;;;;;48.30;11.20;;;;;;;;;;5007943;28;20578;-71
2022/08/05 12:07:10;;;;;;;53.90;9.77;;;;;;;;;;5008786;28;20484;-70
2022/08/05 12:09:38;;;;;;;73.60;14.70;;;;;;;;;;5002716;28;20470;-70
2022/08/05 12:12:06;;;;;;;69.60;12.37;;;;;;;;;;5016793;28;20473;-71
2022/08/05 12:14:38;;;;;;;93.67;13.80;;;;;;;;;;5006035;28;20477;-70
2022/08/05 12:17:08;;;;;;;57.67;12.90;;;;;;;;;;4999759;28;21602;-71
2022/08/05 12:19:42;;;;;;;82.40;18.30;;;;;;;;;;5012440;28;20493;-70
2022/08/05 12:22:09;;;;;;;60.07;13.77;;;;;;;;;;5010428;28;20455;-70
2022/08/05 12:24:40;;;;;;;84.07;19.53;;;;;;;;;;5006704;28;20462;-70
2022/08/05 12:27:08;;;;;;;53.97;12.50;;;;;;;;;;5002969;28;20484;-71
2022/08/05 12:29:35;;;;;;;65.27;17.73;;;;;;;;;;5012942;28;20995;-70
2022/08/05 12:32:06;;;;;;;35.17;13.60;;;;;;;;;;5010651;28;20492;-71
2022/08/05 12:34:35;;;;;;;58.00;15.07;;;;;;;;;;5005943;28;20966;-71
2022/08/05 12:37:09;;;;;;;35.03;10.50;;;;;;;;;;5000776;28;20489;-71
2022/08/05 12:39:37;;;;;;;37.17;13.13;;;;;;;;;;5002908;28;20834;-71
2022/08/05 12:42:08;;;;;;;33.83;10.93;;;;;;;;;;5005937;28;20487;-70
2022/08/05 12:44:36;;;;;;;39.87;14.10;;;;;;;;;;5011833;28;20523;-71
2022/08/05 12:47:05;;;;;;;37.20;11.90;;;;;;;;;;5009356;28;20481;-71
2022/08/05 12:49:39;;;;;;;74.20;15.90;;;;;;;;;;5002500;28;20488;-70
2022/08/05 12:52:12;;;;;;;26.40;11.10;;;;;;;;;;5005430;28;20890;-70
2022/08/05 12:54:40;;;;;;;65.60;17.57;;;;;;;;;;5007635;28;20697;-70
2022/08/05 12:57:09;;;;;;;27.07;10.60;;;;;;;;;;5011417;28;20550;-71
2022/08/05 12:59:43;;;;;;;59.80;16.00;;;;;;;;;;5009388;28;20488;-71
2022/08/05 13:02:12;;;;;;;48.33;12.33;;;;;;;;;;4998500;28;20471;-71
2022/08/05 13:04:41;;;;;;;42.90;14.53;;;;;;;;;;5008351;28;20472;-71
2022/08/05 13:07:11;;;;;;;51.00;9.17;;;;;;;;;;5009903;28;20842;-71
2022/08/05 13:09:38;;;;;;;41.53;13.43;;;;;;;;;;5010953;28;20858;-71
2022/08/05 13:12:07;;;;;;;18.93;8.20;;;;;;;;;;5010975;28;20500;-71
2022/08/05 13:14:36;;;;;;;64.50;16.07;;;;;;;;;;5006948;28;20480;-71
2022/08/05 13:17:04;;;;;;;23.37;8.47;;;;;;;;;;5010886;28;20908;-71
2022/08/05 13:19:32;;;;;;;39.70;12.00;;;;;;;;;;5010464;28;21561;-71
2022/08/05 13:21:59;;;;;;;39.83;9.73;;;;;;;;;;5004822;28;20485;-71
2022/08/05 13:24:26;;;;;;;39.23;12.07;;;;;;;;;;4999771;28;21053;-71
2022/08/05 13:26:53;;;;;;;50.33;14.73;;;;;;;;;;4957123;28;20487;-71
2022/08/05 13:29:20;;;;;;;37.10;9.53;;;;;;;;;;5011063;28;20485;-71
2022/08/05 13:31:47;;;;;;;23.70;9.33;;;;;;;;;;5009164;28;21017;-71
2022/08/05 13:34:14;;;;;;;22.20;9.07;;;;;;;;;;5003393;28;20476;-71
2022/08/05 13:36:43;;;;;;;49.90;14.07;;;;;;;;;;5012029;28;20942;-71
2022/08/05 13:39:12;;;;;;;20.67;9.63;;;;;;;;;;5012093;28;20904;-71
2022/08/05 13:41:39;;;;;;;29.03;12.67;;;;;;;;;;5013012;28;20485;-72
2022/08/05 13:44:06;;;;;;;36.67;12.90;;;;;;;;;;5006386;28;20459;-71
2022/08/05 13:46:33;;;;;;;41.03;15.20;;;;;;;;;;5009784;28;20477;-71
2022/08/05 13:49:01;;;;;;;19.13;9.17;;;;;;;;;;5014045;28;20813;-71
2022/08/05 13:51:32;;;;;;;17.73;8.57;;;;;;;;;;5012133;28;20473;-71
2022/08/05 13:54:01;;;;;;;35.63;14.53;;;;;;;;;;5010501;28;20484;-70
2022/08/05 13:56:28;;;;;;;16.10;8.77;;;;;;;;;;5014811;28;20844;-71
2022/08/05 13:58:55;;;;;;;20.60;10.20;;;;;;;;;;5009752;28;20888;-72
2022/08/05 14:01:23;;;;;;;29.20;11.37;;;;;;;;;;5020031;28;20511;-71
2022/08/05 14:06:31;;;;;;;32.63;11.87;;;;;;;;;;5010729;28;21018;-71
2022/08/05 14:08:59;;;;;;;23.87;8.80;;;;;;;;;;5018869;28;20484;-71
2022/08/05 14:11:28;;;;;;;24.33;10.20;;;;;;;;;;4999285;28;20488;-71
2022/08/05 14:13:55;;;;;;;54.30;16.90;;;;;;;;;;5018420;28;21087;-71
2022/08/05 14:16:22;;;;;;;37.13;11.20;;;;;;;;;;5001349;28;20500;-71
2022/08/05 14:18:49;;;;;;;34.63;10.57;;;;;;;;;;5015580;28;20506;-70
2022/08/05 14:21:16;;;;;;;18.40;7.37;;;;;;;;;;5009226;28;20626;-71
2022/08/05 14:23:43;;;;;;;38.20;11.80;;;;;;;;;;5017717;28;20485;-71
2022/08/05 14:26:10;;;;;;;35.83;11.40;;;;;;;;;;5011630;28;20492;-71
2022/08/05 14:28:39;;;;;;;56.13;15.33;;;;;;;;;;5013691;28;20958;-71
2022/08/05 14:31:06;;;;;;;27.80;7.63;;;;;;;;;;5015112;28;21097;-71
2022/08/05 14:33:33;;;;;;;41.23;12.83;;;;;;;;;;5007271;28;20918;-71
2022/08/05 14:36:00;;;;;;;25.87;9.10;;;;;;;;;;5010326;28;20508;-71